Weather at Málaga Airport

Public forecast

Using degrees Celsius for public forecast. Weather courtesy of forecast.io.

Current aviation weather report (METAR) for Málaga Airport

Retrieved 2021/04/11 10:00 UTC (27 minutes ago):

LEMG 111000Z 16004KT 9999 FEW020 SCT080 20/13 Q1016 NOSIG

Aviation forecast (TAF) for Málaga Airport

Retrieved 2021/04/11 06:27 UTC (4 hours ago):

TAF TAF LEMG 110500Z 1106/1206 29006KT 9999 FEW015 SCT030 TX22/1114Z TN11/1206Z BECMG 1108/1110 13008KT BECMG 1118/1120 28007KT